Results by/Résultats par Info:[email protected] Phone: (613)723-0994

                                    K-TOWN TRIATHLON

                                 Sunday August 2, 2009

                         Confederation Park, Kingston, Ontario

                        Overall Results - Long Course Triathlon

  -----FINAL----- ----------------------- ------------ ------------------- -----          2 km                       56.2 km                   15 km
                                                       Category                   ------SWIM + T1-------    ----------BIKE--------    -------RUN + T2-------- -------
    Pos     Time  Name                    City         Plc/Total Category     #    Cat  Ovr  Time  /100m     Cat Ovr Time  km/hr      Cat  Ovr  Time     km   BRIDGE
  ------  ------- ----------------------- ------------ ------------------- -----  ----------------------    ----------------------    ----------------------- -------
    1     2:49:53 Mike NEILL              Victoria     1/5   Elite Men     162    3      5   30:21  1:32    1      1 1:23:47  40.2     3      5   55:46  3:44
    2     2:52:24 Ryan GRANT              Ottawa       2/5   Elite Men     159    4     13   33:02  1:40    2      2 1:24:13  40.0     2      3   55:09  3:41
    3     2:53:43 Scott TAKALA            Sydenham     3/5   Elite Men     122    1      2   29:39  1:29    4     13 1:32:31  36.4     1      1   51:35  3:27
    4     2:53:56 Mike GREENBERG          Toronto      1/25  M35 - 39       91    1      1   28:22  1:26    3     15 1:33:45  36.0     1      2   51:50  3:28
    5     2:56:40 Rick HELLARD            Ottawa       4/5   Elite Men     164    2      3   30:04  1:31    3     10 1:32:09  36.6     4      7   58:28  3:54    4:00
    6     3:00:54 Rob MCCULLOCH           Ottawa       1/26  M45 - 49       83    1     15   33:11  1:40    2      5 1:29:15  37.8     1      8   58:28  3:54
    7     3:01:38 Cliff WORDEN-ROGERS     Ottawa       1/12  M25 - 29      143    3     40   38:25  1:56    1      3 1:27:55  38.4     1      4   55:18  3:42
    8     3:01:55 Ian FRASER              Ottawa       2/26  M45 - 49      126    2     20   34:25  1:44    1      4 1:28:15  38.2     2     11   59:16  3:58
    9     3:07:04 David MARKIN            Ottawa       1/11  M30 - 34      157    2     10   32:40  1:38    1      6 1:29:59  37.5     2     26 1:04:26  4:18
   10     3:07:33 Jonathan MONCRIEFF      Toronto      2/11  M30 - 34      150    6     22   35:28  1:47    2     18 1:34:43  35.6     1      6   57:23  3:50
   11     3:08:20 Paul MCANENEY           Ottawa       2/25  M35 - 39       40    3     16   33:17  1:40    1      7 1:31:04  37.0     3     25 1:03:59  4:16
   12     3:08:48 Dougal BALE             Kingston     3/25  M35 - 39       62    4     31   37:14  1:52    2     14 1:32:55  36.3     2      9   58:41  3:55
   13     3:08:56 Allan FAULDS            Frankford    1/29  M40 - 44      110    4     36   37:29  1:53    1     11 1:32:24  36.5     1     10   59:04  3:57
   14     3:09:01 Matt SETLACK            Borden       1/2   M20 - 24      147    2     37   38:01  1:55    1      8 1:31:22  36.9     1     13   59:39  3:59
   15     3:09:40 Ryan POWER              London       5/5   Elite Men     160    5     23   35:50  1:48    5     16 1:34:30  35.7     5     12   59:21  3:58
   16     3:10:06 Yves FORTIN             Ottawa       3/26  M45 - 49      161    5     35   37:25  1:53    3      9 1:31:52  36.7     4     16 1:00:49  4:04
   17     3:11:03 Lawrence BAIN           Grimsby      4/26  M45 - 49      149    3     27   36:20  1:49    5     19 1:34:55  35.5     3     14   59:50  4:00
   18     3:11:38 Adam JONES              Ottawa       2/12  M25 - 29      103    2     30   37:11  1:52    2     17 1:34:34  35.7     2     15   59:55  4:00
   19     3:12:38 Clive MORGAN            Yarker       1/20  M50 - 54       26    1      6   30:36  1:32    1     36 1:38:40  34.2     2     22 1:03:22  4:14
   20     3:16:14 Dalton COTE             Kingston     5/26  M45 - 49       85    4     33   37:22  1:53    6     22 1:35:42  35.2     7     21 1:03:11  4:13
   21     3:17:21 Louis TAY               Ottawa       2/29  M40 - 44       19    3     32   37:18  1:52    2     26 1:36:28  35.0     2     23 1:03:36  4:15
   22     3:18:28 Stephen PECK            Cobourg      3/11  M30 - 34      128    5     21   35:18  1:46    3     20 1:35:39  35.3     4     35 1:07:31  4:31
   23     3:19:48 Scott SMITH             Kingston     4/11  M30 - 34       30    1      8   31:47  1:36    6     39 1:39:00  34.1     6     45 1:09:02  4:37
   24     3:20:04 Scott DICK              Ottawa       4/25  M35 - 39       11    2      4   30:06  1:31    7     46 1:39:48  33.8     6     49 1:10:11  4:41
   25     3:20:13 Ian BALL                Kingston     5/11  M30 - 34      104    4     19   34:11  1:43    4     25 1:36:09  35.1     7     47 1:09:53  4:40
   26     3:21:08 Christopher GRIMWOOD    Guelph       6/11  M30 - 34       63    3     14   33:05  1:40    10    68 1:42:54  32.8     3     29 1:05:11  4:21
   27     3:21:14 Brian MILLER            Toronto      6/26  M45 - 49      115    8     56   40:08  2:01    4     12 1:32:24  36.5     10    43 1:08:43  4:35
   28     3:21:46 Michael DUNCAN          Huntsville   3/29  M40 - 44      136    6     39   38:21  1:56    4     38 1:38:58  34.1     4     27 1:04:28  4:18
   29     3:21:50 Shawn LEROUX            Montreal     3/12  M25 - 29       56    4     41   38:26  1:56    3     21 1:35:40  35.2     3     37 1:07:44  4:31
   30     3:21:54 George REID             Chelsea      1/11  M55 - 59       77    1     34   37:24  1:53    2     66 1:42:44  32.8     1     17 1:01:47  4:08
   31     3:22:34 Shawn MCCLEERY          Ottawa       7/26  M45 - 49       45    11    72   42:11  2:07    8     34 1:38:30  34.2     5     18 1:01:54  4:08
   32     3:22:56 Paul NIELSEN            Guelph       4/12  M25 - 29      144    1      7   31:33  1:35    6     43 1:39:13  34.0     7     58 1:12:11  4:49
   33     3:23:12 Arvids SILIS            Toronto      2/20  M50 - 54       71    2     11   32:42  1:39    3     90 1:47:29  31.4     1     19 1:03:01  4:13
   34     3:23:15 Len IRELAND             Ottawa       2/11  M55 - 59      117    3     73   42:16  2:07    1     23 1:35:45  35.2     2     30 1:05:15  4:21
   35     3:23:45 Craig FAUCETTE          Kingston     7/11  M30 - 34      107    9     43   38:45  1:57    5     27 1:36:48  34.8     5     39 1:08:13  4:33
   36     3:24:13 Lianne MORISSETTE       Kingston     1/10  W35 - 39      225    2     12   33:01  1:40    1     24 1:36:08  35.1     4     71 1:15:05  5:01
   37     3:25:07 Mike MYERS              Belleville   4/29  M40 - 44      995    7     42   38:42  1:57    9     63 1:42:28  32.9     3     24 1:03:57  4:16
   38     3:25:56 Colin MACDOUGALL        Glenburnie   5/29  M40 - 44       69    1     18   34:02  1:43    13    71 1:43:22  32.6     7     40 1:08:34  4:35
   39     3:26:43 Jackie SMALEC           Burlington   1/11  W45 - 49      262    2     49   39:17  1:58    1     35 1:38:35  34.2     1     44 1:08:52  4:36
   40     3:27:26 Glen CARADUS            Peterborou   6/29  M40 - 44      111    11    60   40:29  2:02    5     41 1:39:04  34.0     6     38 1:07:53  4:32
   41     3:27:44 Mark MURPHY             North Bay    2/2   M20 - 24      138    1     17   33:24  1:41    2     62 1:42:18  33.0     2     57 1:12:03  4:49
   42     3:27:47 Chris MACKNIE           Ottawa       8/26  M45 - 49       58    17    97   46:38  2:20    7     31 1:38:07  34.4     6     20 1:03:03  4:13
   43     3:28:55 Ben BELL                Oshawa       5/12  M25 - 29       94    5     52   39:56  2:00    5     33 1:38:29  34.2     6     51 1:10:30  4:42
   44     3:29:07 Frederic BEAUDETTE      Laval        6/12  M25 - 29      124    6     61   41:16  2:04    4     32 1:38:28  34.2     5     46 1:09:24  4:38
   45     3:29:19 Monica LABARGE          Kingston     1/14  W30 - 34      245    1     26   36:18  1:49    1     54 1:41:38  33.2     3     54 1:11:24  4:46
   46     3:29:23 Dierdre DOUGLAS         Montreal     2/10  W35 - 39      252    3     54   39:59  2:00    3     72 1:43:32  32.6     1     32 1:05:53  4:24
   47     3:30:11 Stephen HINTON          Kingston     3/20  M50 - 54       14    3     50   39:30  1:59    2     37 1:38:42  34.2     3     56 1:12:00  4:48
   48     3:30:17 Jeffrey BRENNER         Thornhill    7/29  M40 - 44      145    2     28   36:49  1:51    12    70 1:43:06  32.7     8     50 1:10:23  4:42
   49     3:30:19 Lianne CRAWFORD         Toronto      3/10  W35 - 39      235    1      9   32:33  1:38    2     67 1:42:54  32.8     3     69 1:14:53  5:00
   50     3:30:19 David BROWN             Dunrobin     8/29  M40 - 44       89    9     57   40:14  2:01    11    65 1:42:44  32.8     5     34 1:07:22  4:30
   51     3:30:20 Bradford SHAPANSKY      Ottawa       9/26  M45 - 49      140    15    88   45:25  2:17    10    44 1:39:21  33.9     9     31 1:05:35  4:23
   52     3:32:23 Gene JOCHEN             Peterborou  10/26  M45 - 49      156    20   117   48:52  2:27    9     40 1:39:00  34.1     8     28 1:04:33  4:19
   53     3:32:55 Michael MICHAUD         Ottawa       5/25  M35 - 39       29    9     90   45:38  2:17    6     45 1:39:44  33.8     4     36 1:07:34  4:31
   54     3:33:14 Joe MCMASTER            Gananque     9/29  M40 - 44      163    10    59   40:28  2:02    3     30 1:37:47  34.5     13    70 1:15:00  5:00
   55     3:34:36 Matt MACMILLAN          Kingston     8/11  M30 - 34      135    10    55   40:04  2:01    7     47 1:40:32  33.5     8     63 1:14:01  4:57
   56     3:35:11 Billy SCHOENHARDT       King city   10/29  M40 - 44      129    14    65   41:44  2:06    6     42 1:39:07  34.0     12    65 1:14:21  4:58
   57     3:36:12 Dave DI BELLA           Peterborou   6/25  M35 - 39      105    5     48   39:12  1:58    17    98 1:48:22  31.1     5     41 1:08:39  4:35
   58     3:36:37 Neil EMERY              Peterborou  11/29  M40 - 44       76    5     38   38:06  1:55    19    94 1:47:56  31.2     9     52 1:10:37  4:43
   59     3:37:15 Ben BASU                Ottawa      12/29  M40 - 44       33    13    64   41:36  2:05    8     60 1:42:13  33.0     11    62 1:13:28  4:54
   60     3:37:38 Jon BELL                Oshawa       9/11  M30 - 34       97    7     24   35:59  1:48    8     50 1:41:22  33.3     10   103 1:20:18  5:22
   61     3:37:44 Andrew BALL             Grimsby     10/11  M30 - 34      113    8     25   36:16  1:49    9     56 1:41:52  33.1     9     99 1:19:37  5:19
   62     3:38:18 Julia FOURNIER          Ottawa       1/11  W40 - 44      240    1     46   38:51  1:57    1     78 1:44:39  32.2     2     68 1:14:48  5:00
   63     3:38:19 Jenn BON                Smiths Fal   2/14  W30 - 34      246    6    110   48:06  2:25    2     69 1:43:05  32.7     1     33 1:07:09  4:29
   64     3:38:36 James MAHONEY           Toronto     11/26  M45 - 49      132    16    91   45:43  2:18    13    61 1:42:15  33.0     11    53 1:10:40  4:43
   65     3:38:44 William COOPER          Kingston    12/26  M45 - 49      112    6     44   38:48  1:57    12    53 1:41:31  33.2     13    87 1:18:26  5:14
   66     3:39:45 Greg PHELAN             Kingston    13/29  M40 - 44      123    8     47   38:56  1:57    16    77 1:44:26  32.3     15    76 1:16:24  5:06
   67     3:42:54 Adam JOHNSTON           Toronto      7/25  M35 - 39      114    17   133   50:29  2:32    8     48 1:40:38  33.5     7     55 1:11:48  4:48
   68     3:44:48 Andrew PHILLIPS         Somers       8/25  M35 - 39       74    12   103   47:42  2:24    4     28 1:37:02  34.8     16   102 1:20:05  5:21
   69     3:45:22 Stefan HLOUSCHKO        Toronto      7/12  M25 - 29       98    9    119   49:01  2:28    9     93 1:47:42  31.3     4     42 1:08:40  4:35
   70     3:45:25 Craig CAMPBELL          Odessa      14/29  M40 - 44       32    15    69   42:00  2:06    20    97 1:48:08  31.2     14    73 1:15:18  5:02
   71     3:46:05 Scott GREENOUGH         Trenton     15/29  M40 - 44      152    12    63   41:27  2:05    7     52 1:41:29  33.2     24   127 1:23:10  5:33
   72 CLY 3:46:19 Jared STEVENS           Courtice     9/25  M35 - 39       28    7     68   41:59  2:06    13    81 1:45:00  32.1     13    96 1:19:21  5:18
   73     3:46:39 Wesley SKOCZEN          Burlington  13/26  M45 - 49      127    14    84   44:27  2:14    14    73 1:43:34  32.6     14    91 1:18:39  5:15
   74     3:46:53 Mitch FALLIS            Yarker      14/26  M45 - 49       12    12    79   43:32  2:11    11    51 1:41:27  33.2     17   116 1:21:55  5:28
   75     3:47:02 Tara RAWLUK             Stirling     3/14  W30 - 34      251    2     45   38:49  1:57    3     91 1:47:38  31.3     6    108 1:20:36  5:23
   76     3:47:05 Marc LEMIEUX            Kingston    16/29  M40 - 44       51    17    75   42:46  2:09    17    85 1:46:46  31.6     17    82 1:17:34  5:11
   77     3:47:28 Yves DECOSTE            Lyn         10/25  M35 - 39      134    6     58   40:21  2:02    15    86 1:46:47  31.6     17   105 1:20:20  5:22
   78     3:47:59 Andrew WESTON           Nepean      17/29  M40 - 44       81    18    77   43:11  2:10    10    64 1:42:43  32.8     21   119 1:22:06  5:29
   79     3:48:51 Heather IRELAND         Ottawa       2/11  W45 - 49      263    4    112   48:22  2:26    2     80 1:44:53  32.2     2     74 1:15:38  5:03
   80     3:50:24 Daniel WILSON           Oshawa      11/25  M35 - 39       43    11    99   47:27  2:23    5     29 1:37:15  34.7     21   139 1:25:43  5:43
   81     3:50:41 Francois REGNIER        Cornwall    15/26  M45 - 49      158    13    81   43:39  2:11    15    79 1:44:47  32.2     18   120 1:22:16  5:30
   82     3:50:42 Adam KOVEN              Kingston    12/25  M35 - 39       21    13   115   48:34  2:26    14    84 1:45:44  31.9     8     77 1:16:25  5:06
   83     3:50:52 Jordan DODD             Kingston     8/12  M25 - 29       24    8    114   48:29  2:26    8     74 1:43:37  32.5     8     92 1:18:47  5:16
   84     3:51:08 Shaun BETHELL           Unionville  18/29  M40 - 44       34    16    74   42:43  2:09    15    76 1:44:10  32.4     25   131 1:24:15  5:37
   85     3:51:37 Dennis DRISCOLL         Peterborou   3/11  M55 - 59      131    5    122   49:23  2:29    4     89 1:47:01  31.5     3     72 1:15:14  5:01
   86     3:51:57 Erin ROSEBRUGH          London       4/14  W30 - 34      257    8    138   51:02  2:34    4    107 1:50:50  30.4     2     48 1:10:06  4:41
   87     3:52:05 Ed BRAND                Kingston     1/3   M60 - 64       39    2    105   47:49  2:24    1    114 1:51:28  30.3     1     61 1:12:49  4:52
   88     3:52:58 Marianne CARLYLE        Brockville   3/11  W45 - 49      208    1     29   36:56  1:51    4    106 1:50:45  30.4     4    138 1:25:18  5:42
   89     3:53:42 Brad LUKOW              Whitby      19/29  M40 - 44       82    22   121   49:16  2:28    14    75 1:43:55  32.4     19   107 1:20:32  5:23
   90     3:53:46 Kimberly HAGESTEIJN     King City    1/3   W20 - 24      254    1     80   43:32  2:11    1    104 1:49:57  30.7     2    104 1:20:18  5:22
   91     3:54:06 Ashby CARNOCHAN         Jasper      13/25  M35 - 39       22    18   157   53:13  2:40    10    55 1:41:49  33.1     12    95 1:19:04  5:17
   92     3:55:17 Alain CYR               Brockville  16/26  M45 - 49      130    21   126   49:50  2:30    19   111 1:51:12  30.3     12    64 1:14:16  4:58
   93     3:55:45 Rob BRUCE               Toronto      4/20  M50 - 54      142    6     89   45:31  2:17    5    102 1:49:19  30.8     6    114 1:20:57  5:24
   94     3:56:02 Peter HALFERTY          Brampton    14/25  M35 - 39        3    10    94   45:55  2:18    11    57 1:41:52  33.1     23   154 1:28:16  5:54
   95     3:56:06 Carolyn BROWN           Kanata       1/8   W25 - 29      253    2     87   45:09  2:16    2    119 1:52:11  30.1     1     93 1:18:47  5:16
   96     3:57:54 Benjamin BATSON         Kingston     9/12  M25 - 29        7    7     92   45:46  2:18    7     59 1:42:07  33.0     11   159 1:30:02  6:01
   97     3:58:23 Colin BOULTON           Whitby      20/29  M40 - 44       31    21    98   47:19  2:22    21   101 1:49:00  30.9     20   118 1:22:06  5:29
   98     3:58:34 Kathy HAWTHORNE         Shelburne    2/8   W25 - 29      230    1     66   41:55  2:06    1    117 1:51:54  30.1     3    135 1:24:46  5:40
   99     3:58:35 Duane BRYSON            Trenton     15/25  M35 - 39      139    22   185   58:10  2:55    9     49 1:40:38  33.5     15   101 1:19:47  5:20
  100     3:58:36 Glenda CLAPHAM          Whitby       4/11  W45 - 49      217    5    113   48:23  2:26    3     83 1:45:37  31.9     3    134 1:24:38  5:39
  101     3:59:05 Sheri MCCREADY          Ottawa       2/11  W40 - 44      269    6    148   52:19  2:37    2     99 1:48:59  30.9     3     84 1:17:47  5:12
  102     3:59:14 James MCKIRDY           Ottawa      17/26  M45 - 49       38    7     51   39:44  2:00    21   118 1:52:04  30.1     23   149 1:27:27  5:50
  103     4:00:32 Carrie HELDMAN          Orangevill   3/11  W40 - 44      278    5    143   51:53  2:36    6    129 1:54:14  29.5     1     66 1:14:27  4:58
  104     4:00:49 Wanda COOK              St. Cathar   5/14  W30 - 34      220    3     85   45:00  2:15    7    140 1:57:24  28.7     5     88 1:18:26  5:14
  105     4:01:19 Christopher RUBECK      Geneseo     21/29  M40 - 44       41    20    95   46:23  2:20    26   146 1:58:07  28.5     16    78 1:16:49  5:08
  106     4:01:48 John KLUKACH            Toronto     22/29  M40 - 44      106    28   182   56:34  2:50    24   123 1:52:52  29.9     10    59 1:12:23  4:50
  107     4:02:07 Stewart DOUGLAS         Mississaug  18/26  M45 - 49       49    19   116   48:44  2:27    16    88 1:46:56  31.5     22   143 1:26:28  5:46
  108     4:02:57 Paul HERLEHY            Westport    19/26  M45 - 49       59    10    71   42:08  2:07    18   110 1:51:11  30.3     24   158 1:29:39  5:59
  109     4:03:01 Michael LOPERS          Whitby      16/25  M35 - 39      153    15   128   49:58  2:30    19   113 1:51:23  30.3     19   115 1:21:41  5:27
  110     4:03:15 Rob MCPHEE              Edmonton     4/11  M55 - 59       92    2     67   41:56  2:06    7    150 1:58:21  28.5     7    124 1:22:59  5:32
  111     4:03:53 Tim MCMICHAEL           Kingston    20/26  M45 - 49        4    18   106   47:50  2:24    20   112 1:51:14  30.3     21   137 1:24:50  5:40
  112     4:04:22 Chris CHARD             Glenburnie  17/25  M35 - 39       10    19   161   53:33  2:41    20   121 1:52:24  30.0     11    89 1:18:26  5:14
  113     4:04:29 John LEVAC              Mississaug  23/29  M40 - 44       60    27   168   54:31  2:44    18    87 1:46:52  31.6     23   126 1:23:07  5:33
  114     4:04:57 Dean TIMBRELL           Ingleside   21/26  M45 - 49        2    25   167   54:24  2:44    17   109 1:51:09  30.3     15    98 1:19:25  5:18
  115 CLY 4:05:14 Marc DIGIORGIO          Toronto     18/25  M35 - 39       35    23   188   58:31  2:56    12    58 1:41:54  33.1     20   136 1:24:49  5:40
  116     4:05:15 Amber COMISSO           Kingston     6/14  W30 - 34      265    4    100   47:28  2:23    5    133 1:55:11  29.3     8    123 1:22:36  5:31
  117     4:05:25 Reiko IKEBA             Toronto      4/10  W35 - 39      258    6    104   47:46  2:24    10   182 2:05:03  27.0     2     60 1:12:37  4:51
  118     4:06:33 Richard BOWES           Kanata       5/11  M55 - 59      121    9    184   57:57  2:54    5     95 1:47:59  31.2     5    109 1:20:37  5:23
  119     4:06:36 Chris HERRON            Cobourg     19/25  M35 - 39        6    8     82   44:09  2:13    16    92 1:47:41  31.3     24   177 1:34:46  6:20
  120     4:06:45 Geoff SHEWFELT          Clayton     20/25  M35 - 39      119    21   173   54:51  2:45    21   122 1:52:30  30.0     14    97 1:19:25  5:18
  121     4:06:46 Dave MORTON             Nepean       5/20  M50 - 54       70    15   181   56:07  2:49    7    115 1:51:45  30.2     5     94 1:18:56  5:16
  122     4:07:13 Ann Marie BRADY         Ottawa       1/5   W50 - 54      259    2    159   53:29  2:41    1    137 1:56:10  29.0     1     83 1:17:36  5:11
  123     4:08:16 Christine LATTIMORE     Kingston     2/5   W50 - 54      242    1     96   46:32  2:20    2    160 2:01:06  27.8     2    110 1:20:39  5:23
  124     4:08:27 Denis MOREL             Hartington   6/20  M50 - 54        5    9    125   49:48  2:30    6    105 1:50:05  30.6     11   157 1:28:35  5:55
  125     4:08:36 Nicola JOHNSON          Kanata       4/11  W40 - 44      276    9    162   53:45  2:42    3    120 1:52:23  30.0     6    122 1:22:29  5:30
  126     4:08:38 Rob MCPHAIL             Mississaug   6/11  M55 - 59      151    6    135   50:48  2:33    9    155 1:59:47  28.2     4     86 1:18:04  5:13
  127     4:09:35 Amy HURFORD             Kingston     7/14  W30 - 34      233    11   155   53:04  2:40    6    136 1:55:41  29.1     7    112 1:20:50  5:24
  128     4:09:39 Maurice GALLAGHER       Toronto     22/26  M45 - 49       93    26   177   55:18  2:46    23   131 1:54:43  29.4     16   100 1:19:39  5:19
  129     4:10:00 Darrell BOND            Kanata       7/20  M50 - 54      148    10   127   49:53  2:30    9    130 1:54:21  29.5     8    140 1:25:47  5:44
  130     4:11:19 Michael BRUNDAGE        Kingston     8/20  M50 - 54       53    12   151   52:34  2:38    4     96 1:48:05  31.2     13   162 1:30:40  6:03
  131     4:11:47 Kathleen KEALEY         Ottawa       3/8   W25 - 29      266    6    163   53:50  2:42    3    139 1:57:13  28.8     2    111 1:20:45  5:23
  132     4:11:53 Craig MEEKS             Roslin      24/29  M40 - 44       65    26   164   53:58  2:42    22   108 1:50:54  30.4     26   146 1:27:01  5:49
  133     4:12:34 Andrew HALL             Kingston    23/26  M45 - 49       27    22   134   50:43  2:33    25   149 1:58:15  28.5     19   128 1:23:36  5:35
  134     4:12:43 Mike LATTIMORE          Kingston    24/26  M45 - 49       72    23   152   52:59  2:39    24   134 1:55:17  29.2     20   133 1:24:28  5:38
  135     4:13:04 Bob HARDING             Perth Road   7/11  M55 - 59       15    7    137   51:02  2:34    6    103 1:49:44  30.7     9    170 1:32:19  6:10
  136     4:13:15 Allison CHRISTIE        Ottawa       5/10  W35 - 39      209    5    101   47:30  2:23    8    164 2:01:28  27.8     5    132 1:24:18  5:38
  137     4:13:26 Michael WECHSELBERGER   Toronto     21/25  M35 - 39       20    14   118   48:58  2:27    23   143 1:57:50  28.6     22   144 1:26:39  5:47
  138     4:13:28 Denise ROSS             Mississaug   1/4   W55 - 59      268    1    175   55:05  2:46    1    162 2:01:16  27.8     1     79 1:17:08  5:09
  139     4:13:35 Russell BOYCE           Kingston     9/20  M50 - 54       95    4     53   39:58  2:00    13   159 2:01:05  27.8     14   171 1:32:33  6:11
  140     4:13:38 Ambrose AU              Markham     22/25  M35 - 39      133    25   205 1:06:50  3:21    18   100 1:48:59  30.9     10    85 1:17:49  5:12
  141     4:13:44 Pat POWERS              Kingston    10/20  M50 - 54       13    17   192   59:37  2:59    11   145 1:57:58  28.6     4     75 1:16:10  5:05
  142     4:14:12 Greg EARL               Smiths Fal  25/29  M40 - 44       84    25   146   52:16  2:37    23   116 1:51:46  30.2     27   160 1:30:11  6:01
  143     4:14:32 Leah REINBERGER         Orleans      8/14  W30 - 34      223    14   194   59:55  3:00    8    156 1:59:56  28.1     4     67 1:14:43  4:59
  144     4:15:11 Nathalie BOSSE          Brampton     5/11  W40 - 44      204    4    123   49:29  2:29    5    126 1:53:50  29.6     8    168 1:31:53  6:08
  145     4:16:20 Stacey BERDAN           Tweed        6/11  W40 - 44      202    11   178   55:35  2:47    8    170 2:02:16  27.6     4     90 1:18:30  5:14
  146     4:17:14 Kelly GEDDIS            Woodlawn     6/10  W35 - 39      221    9    166   54:14  2:43    5    138 1:56:13  29.0     6    145 1:26:47  5:48
  147     4:17:14 Gary CHEVALIER          Dorset       8/11  M55 - 59      137    11   207 1:07:56  3:24    3     82 1:45:18  32.0     8    130 1:24:02  5:37
  148     4:19:21 Carolyn MURRAY          Mississaug   7/11  W40 - 44      231    3    107   47:58  2:24    10   176 2:03:20  27.3     7    153 1:28:04  5:53
  149     4:19:32 Cory CRONK              Kingston    11/20  M50 - 54       78    8    111   48:06  2:25    8    124 1:53:01  29.8     16   185 1:38:26  6:34
  150     4:19:50 Andrew PAQUIN           Inverary    23/25  M35 - 39       66    24   204 1:04:30  3:14    22   141 1:57:47  28.6     9     81 1:17:34  5:11
  151     4:20:04 Michelle BETHELL        Unionville   8/11  W40 - 44      224    10   171   54:40  2:44    9    175 2:02:58  27.4     5    121 1:22:27  5:30
  152     4:20:19 Jay SERDULA             Kingston    24/25  M35 - 39      108    20   170   54:38  2:44    24   181 2:04:50  27.0     18   113 1:20:53  5:24
  153     4:20:58 Sara COOPER             Kingston     2/3   W20 - 24      270    3    195 1:00:04  3:01    2    177 2:03:40  27.3     1     80 1:17:15  5:09
  154     4:21:03 Scott ARMSTRONG         Thornhill   26/29  M40 - 44      998    19    78   43:22  2:11    28   197 2:14:38  25.0     22   125 1:23:04  5:33
  155     4:21:30 Trevor VOWLES           Kingston     2/3   M60 - 64      155    3    130   50:01  2:31    2    154 1:59:26  28.2     2    169 1:32:03  6:09
  156     4:22:08 Jenn ROSS               Merrickvil   7/10  W35 - 39      203    8    165   54:01  2:43    7    157 2:00:04  28.1     7    152 1:28:03  5:53
  157     4:22:19 Sarah OUGHTON           Mississaug   9/14  W30 - 34      236    5    108   48:00  2:24    10   174 2:02:42  27.5     12   165 1:31:38  6:07
  158     4:22:47 Michelle PEACOCK        Oshawa       8/10  W35 - 39      267    7    149   52:20  2:37    6    142 1:57:48  28.6     8    172 1:32:40  6:11
  159     4:23:06 Morris OCALLAGHAN       Ottawa       3/3   M60 - 64      100    1     62   41:24  2:05    3    180 2:04:20  27.1     3    183 1:37:23  6:30
  160 CLY 4:23:27 James SNYDER            Kingston    10/12  M25 - 29       48    11   191   59:12  2:58    10   151 1:58:25  28.5     9    141 1:25:50  5:44
  161 CLY 4:23:43 Peter BABIAK            Oshawa      27/29  M40 - 44       25    29   198 1:01:27  3:05    27   167 2:01:51  27.7     18   106 1:20:26  5:22
  162     4:25:17 Tim TALLACK             London       9/11  M55 - 59       57    10   203 1:04:19  3:13    8    152 1:59:04  28.3     6    117 1:21:55  5:28
  163 CLY 4:26:05 Tanya WILKINSON         Port Perry   9/10  W35 - 39      222    4     86   45:05  2:16    4    127 1:53:50  29.6     10   196 1:47:10  7:09
  164     4:26:14 Jennifer WARD           Syracuse     4/8   W25 - 29      216    5    145   52:10  2:37    5    171 2:02:21  27.6     6    166 1:31:43  6:07
  165     4:26:41 Joelle REGNIER          Cornwall     9/11  W40 - 44     1000    8    154   53:03  2:40    7    147 1:58:09  28.5     10   178 1:35:31  6:23
  166     4:26:52 Christine HOPKINS       Kingston    10/14  W30 - 34      243    12   172   54:48  2:45    9    161 2:01:07  27.8     11   163 1:30:58  6:04
  167     4:27:19 Robert ALLEN            Kingston    25/26  M45 - 49       42    24   153   53:00  2:39    26   158 2:00:16  28.0     25   175 1:34:03  6:17
  168     4:27:44 Jamie PORTER            Brockville  11/12  M25 - 29       67    10   189   58:36  2:56    11   165 2:01:34  27.7     10   150 1:27:35  5:51
  169     4:28:13 Kyla WERRETT            Mississaug  11/14  W30 - 34      201    9    140   51:24  2:35    12   188 2:09:23  26.1     9    148 1:27:27  5:50
  170     4:28:20 Brett LOCKERBIE         Bath        12/20  M50 - 54       23    13   158   53:16  2:40    10   144 1:57:53  28.6     15   182 1:37:12  6:29
  171     4:28:35 Sarah MAK               Mississaug   5/8   W25 - 29      277    7    183   57:50  2:54    4    153 1:59:16  28.3     5    164 1:31:30  6:06
  172     4:28:40 Cuthbert CHEUNG         Belleville  13/20  M50 - 54       86    7    109   48:06  2:25    16   189 2:10:12  25.9     12   161 1:30:24  6:02
  173     4:31:47 Bruce WELLER            Newmarket   28/29  M40 - 44       79    23   124   49:46  2:30    25   132 1:54:58  29.3     28   195 1:47:04  7:09
  174     4:32:37 David STEVENS           Rideau fer  10/11  M55 - 59      102    8    160   53:29  2:41    10   163 2:01:20  27.8     10   184 1:37:49  6:32
  175     4:33:50 Dave GILBERT            St. Thomas  11/11  M30 - 34       96    11   144   52:07  2:37    11   135 1:55:40  29.2     11   193 1:46:04  7:05
  176     4:34:04 Maria CRONK             Kngston      5/11  W45 - 49      244    7    156   53:06  2:40    8    185 2:05:18  26.9     5    179 1:35:41  6:23
  177     4:34:53 Lesley VARS             New York    12/14  W30 - 34      213    7    131   50:11  2:31    13   198 2:16:44  24.7     10   151 1:27:58  5:52
  178     4:34:58 Brooke CAIRNS           Kingston     6/8   W25 - 29      229    8    190   59:11  2:58    6    186 2:08:39  26.2     4    147 1:27:09  5:49
  179     4:37:55 Cecily THOMPSON         Toronto      3/5   W50 - 54      272    3    197 1:01:21  3:05    3    169 2:02:07  27.6     3    176 1:34:27  6:18
  180     4:38:38 Wendy HILLIER           Smiths Fal   6/11  W45 - 49      250    3    102   47:41  2:24    7    172 2:02:22  27.6     8    198 1:48:37  7:15
  181     4:39:15 Karen JUTZI             North York  10/10  W35 - 39      271    10   176   55:10  2:46    9    179 2:04:05  27.2     9    186 1:40:01  6:41
  182     4:40:01 Julie LAFLAMME          Ottawa      10/11  W40 - 44      228    7    150   52:28  2:38    11   195 2:13:35  25.2     9    174 1:33:58  6:16
  183     4:40:07 Grant SNYDER            Kingston    14/20  M50 - 54       73    19   209 1:11:05  3:34    14   184 2:05:06  27.0     7    129 1:23:56  5:36
  184     4:41:36 Matt GALLANT            Kingston    12/12  M25 - 29       75    12   202 1:04:01  3:13    12   178 2:03:53  27.2     12   173 1:33:42  6:15
  185     4:41:42 Bessie OSTER            Brooklyn    13/14  W30 - 34      214    10   142   51:34  2:35    11   183 2:05:04  27.0     13   191 1:45:05  7:01
  186     4:44:33 Laurent LEGAULT         Kingsport   15/20  M50 - 54      154    16   187   58:19  2:55    19   199 2:17:44  24.5     10   156 1:28:31  5:55
  187 CLY 4:44:37 Donna BOWERS            Toronto      7/11  W45 - 49      256    6    147   52:17  2:37    5    166 2:01:35  27.7     9    199 1:50:45  7:23
  188     4:44:40 Katherine VENANCE       Ottawa       8/11  W45 - 49      207    8    174   54:59  2:45    6    168 2:02:02  27.6     7    197 1:47:41  7:11
  189     4:44:52 Johanna HANSEN          Kingston     7/8   W25 - 29      232    4    139   51:16  2:34    7    194 2:13:35  25.2     8    187 1:40:02  6:41
  190     4:45:54 Maryanne GREEN          Kingston     8/8   W25 - 29      211    3    129   50:01  2:31    8    201 2:19:04  24.2     7    181 1:36:49  6:28
  191     4:48:34 Gary HOADLEY            Peterborou  16/20  M50 - 54       80    11   136   50:54  2:33    17   190 2:10:40  25.8     18   194 1:47:02  7:09
  192     4:48:53 Kate RAGOTTE            Brampton     3/3   W20 - 24      239    2    120   49:01  2:28    3    208 2:33:25  22.0     3    142 1:26:28  5:46
  193     4:51:22 Rob RENAUD              Kingston    17/20  M50 - 54       36    5     76   43:04  2:10    18   193 2:13:04  25.3     19   201 1:55:15  7:41
  194     4:52:00 Todd PEARSON            Kingston    18/20  M50 - 54      125    18   193   59:53  3:00    15   187 2:08:57  26.1     17   190 1:43:11  6:53
  195     4:53:25 Gisele CONNOR           Oshawa       2/4   W55 - 59      227    4    206 1:07:19  3:22    2    196 2:14:17  25.1     2    167 1:31:49  6:08
  196     4:57:28 Ursula HALKIAS          Whitby       4/5   W50 - 54      212    5    201 1:03:28  3:11    4    192 2:12:12  25.5     4    188 1:41:49  6:48
  197     4:58:21 Laurie DAVIS            Kanata       9/11  W45 - 49      205    11   208 1:10:22  3:32    9    191 2:11:38  25.6     6    180 1:36:21  6:26
  198     5:02:19 Alexander BA            Kanata      19/20  M50 - 54      997    20   210 1:12:51  3:39    20   203 2:21:02  23.9     9    155 1:28:27  5:54
  199     5:02:56 Laurie LOCKERBIE        Bath         5/5   W50 - 54      218    4    200 1:02:40  3:08    5    200 2:18:02  24.4     5    189 1:42:14  6:49
  200     5:12:15 Jill RELYEA-VOSS        Kingston     3/4   W55 - 59      206    2    179   55:49  2:48    4    207 2:30:54  22.3     3    192 1:45:33  7:03
  201 CLY 5:13:40 Candace GEURTSEN        Grafton     14/14  W30 - 34      275    13   186   58:15  2:55    14   205 2:21:43  23.8     14   200 1:53:44  7:35
  202     5:13:44 Joan BARDOSSI           Rochester   10/11  W45 - 49      249    9    180   55:58  2:48    10   204 2:21:15  23.9     10   202 1:56:32  7:47
  203 CLY 5:39:43 Luann BABIAK            Oshawa      11/11  W45 - 49      219    10   199 1:02:23  3:08    11   206 2:26:04  23.1     11   203 2:11:18  8:46
  204 DNF         Peter BRITTON           Webster     20/20  M50 - 54      109    14   169   54:36  2:44    12   148 1:58:10  28.5
  205 DNF         Ken CORNELIUS           Oshawa      26/26  M45 - 49       61    9     70   42:02  2:07    22   128 1:54:03  29.6
  206 DNF         Gayle MURPHY            Kanata      11/11  W40 - 44      247    2     93   45:51  2:18    4    125 1:53:38  29.7
  207 DNF         Terrence OBRIEN         Kingston    11/11  M55 - 59      120    4     83   44:17  2:13    11   173 2:02:37  27.5
  208 DNF         Patricia SHAW           Burlington   4/4   W55 - 59      200    3    196 1:00:23  3:02    3    202 2:20:07  24.1
  209 DNF         Mike PERRY              Markham     25/25  M35 - 39       37    16   132   50:26  2:32
  210 DNF         Bryan SARAKA            Kingston    29/29  M40 - 44        1    24   141   51:25  2:35